Time;durP1;ratioP1;P1;durP2;ratioP2;P2;SDS_P1;SDS_P2;PMS_P1;PMS_P2;Temp;Humidity;BMP_temperature;BMP_pressure;BME280_temperature;BME280_humidity;BME280_pressure;Samples;Min_cycle;Max_cycle;Signal;HPM_P1;HPM_P2
2022/09/09 00:01:02;;;;;;;0.77;0.60;;;16.00;99.90;;;;;;6090942;23;20022;-76
2022/09/09 00:03:45;;;;;;;0.73;0.52;;;16.00;99.90;;;;;;6111100;23;20017;-76
2022/09/09 00:06:20;;;;;;;1.40;0.70;;;16.00;99.90;;;;;;6089949;23;20025;-76
2022/09/09 00:09:12;;;;;;;1.23;0.50;;;16.00;99.90;;;;;;6088859;23;20036;-76
2022/09/09 00:11:56;;;;;;;1.55;0.60;;;16.00;99.90;;;;;;6087527;23;20057;-76
2022/09/09 00:14:32;;;;;;;0.40;0.35;;;16.00;99.90;;;;;;6087782;23;20117;-75
2022/09/09 00:17:02;;;;;;;0.80;0.60;;;16.00;99.90;;;;;;6086441;23;20431;-75
2022/09/09 00:19:33;;;;;;;0.65;0.50;;;16.00;99.90;;;;;;6085921;23;20021;-75
2022/09/09 00:22:07;;;;;;;1.83;0.40;;;16.00;99.90;;;;;;6086017;23;20120;-75
2022/09/09 00:24:53;;;;;;;0.93;0.50;;;16.00;99.90;;;;;;6086990;23;20033;-75
2022/09/09 00:27:47;;;;;;;1.58;0.40;;;16.00;99.90;;;;;;6087276;23;20036;-76
2022/09/09 00:30:22;;;;;;;0.77;0.60;;;16.00;99.90;;;;;;6062456;23;20105;-75
2022/09/09 00:32:59;;;;;;;0.82;0.50;;;16.00;99.90;;;;;;6061639;23;20407;-75
2022/09/09 00:35:31;;;;;;;0.63;0.40;;;16.00;99.90;;;;;;6086705;23;20406;-75
2022/09/09 00:38:01;;;;;;;0.65;0.43;;;16.00;99.90;;;;;;6086075;23;20258;-75
2022/09/09 00:40:37;;;;;;;0.40;0.20;;;16.00;99.90;;;;;;6086671;23;20093;-75
2022/09/09 00:43:07;;;;;;;0.35;0.35;;;16.10;99.90;;;;;;6062623;23;20030;-75
2022/09/09 00:46:12;;;;;;;0.38;0.30;;;16.10;99.90;;;;;;6112005;23;20073;-75
2022/09/09 00:49:01;;;;;;;0.63;0.55;;;16.10;99.90;;;;;;6084677;23;20022;-75
2022/09/09 00:51:57;;;;;;;1.23;0.43;;;16.10;99.90;;;;;;6086365;23;20072;-75
2022/09/09 00:54:51;;;;;;;0.20;0.20;;;16.10;99.90;;;;;;6112124;23;20530;-76
2022/09/09 00:57:23;;;;;;;1.20;0.43;;;16.00;99.90;;;;;;6112606;23;20230;-75
2022/09/09 01:00:15;;;;;;;0.63;0.30;;;16.00;99.90;;;;;;6086350;23;20310;-76
2022/09/09 01:03:20;;;;;;;0.30;0.30;;;16.00;99.90;;;;;;6085597;23;20029;-75
2022/09/09 01:05:53;;;;;;;0.93;0.40;;;16.00;99.90;;;;;;6090706;23;20097;-75
2022/09/09 01:08:32;;;;;;;0.75;0.40;;;16.00;99.90;;;;;;6111539;23;20025;-75
2022/09/09 01:11:00;;;;;;;0.30;0.30;;;16.00;99.90;;;;;;6112869;23;20105;-75
2022/09/09 01:13:30;;;;;;;0.30;0.30;;;16.00;99.90;;;;;;6086844;23;20112;-76
2022/09/09 01:16:02;;;;;;;0.30;0.25;;;16.00;99.90;;;;;;6090803;23;20025;-76
2022/09/09 01:18:34;;;;;;;0.43;0.28;;;16.00;99.90;;;;;;6090085;23;20037;-75
2022/09/09 01:21:07;;;;;;;0.60;0.30;;;16.00;99.90;;;;;;6090924;23;20022;-75
2022/09/09 01:23:51;;;;;;;0.77;0.45;;;16.10;99.90;;;;;;6115468;23;20101;-75
2022/09/09 01:26:35;;;;;;;0.45;0.30;;;16.10;99.90;;;;;;6116978;23;20073;-76
2022/09/09 01:29:01;;;;;;;0.38;0.30;;;16.10;99.90;;;;;;6090565;23;20022;-76
2022/09/09 01:31:52;;;;;;;1.17;0.40;;;16.10;99.90;;;;;;6117118;23;20061;-75
2022/09/09 01:34:19;;;;;;;0.30;0.30;;;16.10;99.90;;;;;;6087411;23;20036;-75
2022/09/09 01:36:59;;;;;;;1.02;0.38;;;16.10;99.90;;;;;;6064542;23;20438;-74
2022/09/09 01:39:26;;;;;;;0.20;0.20;;;16.10;99.90;;;;;;6092646;23;20025;-75
2022/09/09 01:41:53;;;;;;;1.33;0.55;;;16.00;99.90;;;;;;6092819;23;20052;-75
2022/09/09 01:44:20;;;;;;;1.67;0.70;;;16.10;99.90;;;;;;6068993;23;20041;-75
2022/09/09 01:46:47;;;;;;;1.10;0.40;;;16.10;99.90;;;;;;6116618;23;20025;-75
2022/09/09 01:49:14;;;;;;;0.82;0.47;;;16.10;99.90;;;;;;6090299;23;20022;-75
2022/09/09 01:51:41;;;;;;;1.27;0.63;;;16.10;99.90;;;;;;6066918;23;20025;-75
2022/09/09 01:54:08;;;;;;;0.60;0.50;;;16.10;99.90;;;;;;6068009;23;20025;-75
2022/09/09 01:56:46;;;;;;;1.40;0.57;;;16.10;99.90;;;;;;6091388;23;20053;-75
2022/09/09 01:59:19;;;;;;;1.35;0.80;;;16.00;99.90;;;;;;6091494;23;20018;-75
2022/09/09 02:02:08;;;;;;;1.40;0.60;;;16.00;99.90;;;;;;6117574;23;20026;-75
2022/09/09 02:05:19;;;;;;;1.52;0.60;;;16.00;99.90;;;;;;6117974;23;20109;-75
2022/09/09 02:07:50;;;;;;;2.13;0.63;;;16.00;99.90;;;;;;6118323;23;20105;-76
2022/09/09 02:10:22;;;;;;;1.55;0.80;;;15.90;99.90;;;;;;6092940;23;20024;-75
2022/09/09 02:12:55;;;;;;;0.88;0.50;;;15.90;99.90;;;;;;6093528;23;20035;-75
2022/09/09 02:15:24;;;;;;;0.65;0.57;;;16.00;99.90;;;;;;6092920;23;20366;-75
2022/09/09 02:17:50;;;;;;;1.80;0.52;;;16.00;99.90;;;;;;6091656;23;20029;-75
2022/09/09 02:20:17;;;;;;;1.95;0.75;;;16.00;99.90;;;;;;6092680;23;20434;-74
2022/09/09 02:22:44;;;;;;;1.02;0.40;;;15.90;99.90;;;;;;6091827;23;20052;-79
2022/09/09 02:25:12;;;;;;;1.52;0.70;;;15.90;99.90;;;;;;6092718;23;20084;-80
2022/09/09 02:27:41;;;;;;;1.50;0.70;;;15.70;99.90;;;;;;6093003;23;20032;-80
2022/09/09 02:30:08;;;;;;;1.70;0.63;;;15.60;99.90;;;;;;6092322;23;20044;-79
2022/09/09 02:32:35;;;;;;;1.55;0.60;;;15.50;99.90;;;;;;6068758;23;20018;-82
2022/09/09 02:35:17;;;;;;;0.90;0.47;;;15.40;99.90;;;;;;6070536;23;20022;-85
2022/09/09 02:37:46;;;;;;;0.60;0.40;;;15.40;99.90;;;;;;6070191;23;20018;-82
2022/09/09 02:40:17;;;;;;;0.85;0.40;;;15.40;99.90;;;;;;6094313;23;20029;-86
2022/09/09 02:42:46;;;;;;;0.52;0.30;;;15.40;99.90;;;;;;6072189;23;20049;-85
2022/09/09 02:45:17;;;;;;;1.10;0.50;;;15.40;99.90;;;;;;6070799;23;20022;-85
2022/09/09 02:48:22;;;;;;;0.90;0.70;;;15.40;99.90;;;;;;6069993;23;20021;-82
2022/09/09 02:51:01;;;;;;;0.90;0.60;;;15.30;99.90;;;;;;6069032;23;20028;-83
2022/09/09 02:54:01;;;;;;;1.40;0.70;;;15.30;99.90;;;;;;6092046;23;20022;-80
2022/09/09 02:56:29;;;;;;;1.95;1.00;;;15.30;99.90;;;;;;6023216;23;20025;-82
2022/09/09 02:58:57;;;;;;;1.83;0.70;;;15.30;99.90;;;;;;6069140;23;20018;-81
2022/09/09 03:01:24;;;;;;;2.08;0.90;;;15.20;99.90;;;;;;6091904;23;20026;-82
2022/09/09 03:03:52;;;;;;;1.85;0.98;;;15.30;99.90;;;;;;6092017;23;20395;-80
2022/09/09 03:06:19;;;;;;;1.73;0.90;;;15.30;99.90;;;;;;6068065;23;20061;-80
2022/09/09 03:08:46;;;;;;;1.60;0.98;;;15.20;99.90;;;;;;6068460;23;20395;-80
2022/09/09 03:11:16;;;;;;;3.75;1.45;;;15.20;99.90;;;;;;6092888;23;20057;-80
2022/09/09 03:13:43;;;;;;;4.50;1.20;;;15.20;99.90;;;;;;6092713;23;20053;-79
2022/09/09 03:16:10;;;;;;;2.03;1.20;;;15.20;99.90;;;;;;6068870;23;20315;-79
2022/09/09 03:18:37;;;;;;;1.85;0.80;;;15.20;99.90;;;;;;6067150;23;20022;-80
2022/09/09 03:21:04;;;;;;;2.15;1.02;;;15.20;99.90;;;;;;6117922;23;20025;-79
2022/09/09 03:23:30;;;;;;;1.75;0.98;;;15.20;99.90;;;;;;6115520;23;20427;-79
2022/09/09 03:25:58;;;;;;;1.95;1.30;;;15.30;99.90;;;;;;6092284;23;20025;-78
2022/09/09 03:28:30;;;;;;;2.47;1.00;;;15.20;99.90;;;;;;6092051;23;20102;-78
2022/09/09 03:31:01;;;;;;;1.98;0.75;;;15.20;99.90;;;;;;6092279;23;20443;-78
2022/09/09 03:33:29;;;;;;;1.60;0.70;;;15.20;99.90;;;;;;6090918;23;20467;-78
2022/09/09 03:35:56;;;;;;;1.50;0.85;;;15.20;99.90;;;;;;6092126;23;20021;-78
2022/09/09 03:38:26;;;;;;;1.65;0.85;;;15.20;99.90;;;;;;6091804;23;20548;-79
2022/09/09 03:40:57;;;;;;;1.60;0.75;;;15.30;99.90;;;;;;6068640;23;20017;-78
2022/09/09 03:43:25;;;;;;;1.00;0.47;;;15.30;99.90;;;;;;6068673;23;20022;-77
2022/09/09 03:45:52;;;;;;;1.20;0.60;;;15.30;99.90;;;;;;6091438;23;20030;-78
2022/09/09 03:48:19;;;;;;;2.60;1.38;;;15.30;99.90;;;;;;6090873;23;20039;-78
2022/09/09 03:50:50;;;;;;;2.05;1.10;;;15.30;99.90;;;;;;6091759;23;20034;-80
2022/09/09 03:53:19;;;;;;;1.73;0.90;;;15.30;99.90;;;;;;6091063;23;20026;-78
2022/09/09 03:55:52;;;;;;;1.85;0.85;;;15.30;99.90;;;;;;6068197;23;20049;-78
2022/09/09 03:58:19;;;;;;;2.17;1.00;;;15.30;99.90;;;;;;6068182;23;20063;-78
2022/09/09 04:01:00;;;;;;;1.52;1.00;;;15.30;99.90;;;;;;6067347;23;20018;-78
2022/09/09 04:03:27;;;;;;;2.45;0.77;;;15.30;99.90;;;;;;6090493;23;20442;-78
2022/09/09 04:05:55;;;;;;;0.95;0.60;;;15.30;99.90;;;;;;6067602;23;20332;-78
2022/09/09 04:08:22;;;;;;;2.05;0.90;;;15.30;99.90;;;;;;6117359;23;20026;-78
2022/09/09 04:10:49;;;;;;;1.17;0.80;;;15.30;99.90;;;;;;6091425;23;20101;-79
2022/09/09 04:13:17;;;;;;;1.48;0.88;;;15.40;99.90;;;;;;6091816;23;20045;-78
2022/09/09 04:15:44;;;;;;;1.40;0.80;;;15.30;99.90;;;;;;6091335;23;20120;-78
2022/09/09 04:18:11;;;;;;;0.90;0.60;;;15.40;99.90;;;;;;6067098;23;20022;-78
2022/09/09 04:20:43;;;;;;;0.63;0.60;;;15.40;99.90;;;;;;6069075;23;20044;-78
2022/09/09 04:23:10;;;;;;;1.10;0.50;;;15.40;99.90;;;;;;6091533;23;20030;-78
2022/09/09 04:25:37;;;;;;;0.90;0.65;;;15.40;99.90;;;;;;6068274;23;20030;-78
2022/09/09 04:28:04;;;;;;;0.95;0.70;;;15.40;99.90;;;;;;6091533;23;20028;-78
2022/09/09 04:30:31;;;;;;;1.20;0.50;;;15.40;99.90;;;;;;6067631;23;20469;-78
2022/09/09 04:32:58;;;;;;;2.10;0.90;;;15.40;99.90;;;;;;6090625;23;20017;-77
2022/09/09 04:35:27;;;;;;;1.42;0.90;;;15.40;99.90;;;;;;6091578;23;20132;-82
2022/09/09 04:37:54;;;;;;;0.80;0.50;;;15.40;99.90;;;;;;6090978;23;20109;-82
2022/09/09 04:40:22;;;;;;;1.75;1.00;;;15.40;99.90;;;;;;6068211;23;20483;-83
2022/09/09 04:42:50;;;;;;;0.68;0.50;;;15.30;99.90;;;;;;6068679;23;20180;-82
2022/09/09 04:45:18;;;;;;;2.85;1.23;;;15.30;99.90;;;;;;6092306;23;20025;-82
2022/09/09 04:47:45;;;;;;;1.15;0.88;;;15.20;99.90;;;;;;6090626;23;20040;-80
2022/09/09 04:50:12;;;;;;;1.27;0.77;;;15.30;99.90;;;;;;6087294;23;20490;-82
2022/09/09 04:52:39;;;;;;;1.90;1.02;;;15.30;99.90;;;;;;6089682;23;20022;-82
2022/09/09 04:55:06;;;;;;;2.00;1.17;;;15.20;99.90;;;;;;6089246;23;20025;-82
2022/09/09 04:57:34;;;;;;;2.22;1.15;;;15.20;99.90;;;;;;6089627;23;20052;-81
2022/09/09 05:00:01;;;;;;;2.05;0.70;;;15.20;99.90;;;;;;6065032;23;20521;-80
2022/09/09 05:02:30;;;;;;;1.33;0.90;;;15.20;99.90;;;;;;6087099;23;20026;-80
2022/09/09 05:04:57;;;;;;;4.00;1.00;;;15.20;99.90;;;;;;6063045;23;20045;-80
2022/09/09 05:07:26;;;;;;;1.10;0.80;;;15.20;99.90;;;;;;6112813;23;20022;-79
2022/09/09 05:09:53;;;;;;;1.80;0.93;;;15.20;99.90;;;;;;6086776;23;20030;-80
2022/09/09 05:12:20;;;;;;;1.88;1.00;;;15.20;99.90;;;;;;6113569;23;20328;-80
2022/09/09 05:14:47;;;;;;;1.10;0.80;;;15.20;99.90;;;;;;6060691;23;20025;-80
2022/09/09 05:17:14;;;;;;;1.50;1.05;;;15.20;99.90;;;;;;6108742;23;20105;-79
2022/09/09 05:19:41;;;;;;;2.35;1.15;;;15.20;99.90;;;;;;6107875;23;20030;-79
2022/09/09 05:22:08;;;;;;;1.70;1.20;;;15.20;99.90;;;;;;6081882;23;20449;-79
2022/09/09 05:24:36;;;;;;;1.17;0.85;;;15.20;99.90;;;;;;6107650;23;20029;-79
2022/09/09 05:27:05;;;;;;;0.68;0.60;;;15.20;99.90;;;;;;6058482;23;20022;-79
2022/09/09 05:29:35;;;;;;;1.10;0.82;;;15.20;99.90;;;;;;6107234;23;20081;-78
2022/09/09 05:32:02;;;;;;;2.40;1.10;;;15.30;99.90;;;;;;6107187;23;20854;-79
2022/09/09 05:34:29;;;;;;;1.55;0.93;;;15.20;99.90;;;;;;6080925;23;20401;-78
2022/09/09 05:36:56;;;;;;;2.17;1.30;;;15.30;99.90;;;;;;6083734;23;20022;-79
2022/09/09 05:39:23;;;;;;;2.60;1.13;;;15.30;99.90;;;;;;6083768;23;20675;-78
2022/09/09 05:41:51;;;;;;;1.40;0.98;;;15.30;99.90;;;;;;6084220;23;20026;-79
2022/09/09 05:44:18;;;;;;;2.55;1.63;;;15.30;99.90;;;;;;6061343;23;20028;-77
2022/09/09 05:46:45;;;;;;;2.08;1.27;;;15.30;99.90;;;;;;6110660;23;20022;-78
2022/09/09 05:49:12;;;;;;;1.92;1.38;;;15.30;99.90;;;;;;6109702;23;20025;-77
2022/09/09 05:51:40;;;;;;;2.75;1.38;;;15.30;99.90;;;;;;6084406;23;20026;-79
2022/09/09 05:54:06;;;;;;;2.47;1.50;;;15.30;99.90;;;;;;6085395;23;20374;-79
2022/09/09 05:56:33;;;;;;;4.07;1.98;;;15.30;99.90;;;;;;6084410;23;20125;-78
2022/09/09 05:59:00;;;;;;;3.58;2.03;;;15.30;99.90;;;;;;6110441;23;20026;-79
2022/09/09 06:01:32;;;;;;;2.55;1.50;;;15.30;99.90;;;;;;6083436;23;20030;-78
2022/09/09 06:03:59;;;;;;;4.57;2.33;;;15.30;99.90;;;;;;6083517;23;20029;-78
2022/09/09 06:06:27;;;;;;;3.40;2.08;;;15.30;99.90;;;;;;6084192;23;20407;-79
2022/09/09 06:08:57;;;;;;;2.13;1.40;;;15.30;99.90;;;;;;6109618;23;20090;-78
2022/09/09 06:11:26;;;;;;;1.88;1.30;;;15.30;99.90;;;;;;6084780;23;20022;-78
2022/09/09 06:13:54;;;;;;;3.03;1.50;;;15.30;99.90;;;;;;6085285;23;20109;-75
2022/09/09 06:16:25;;;;;;;3.70;2.47;;;15.40;99.90;;;;;;6084507;23;20022;-76
2022/09/09 06:18:53;;;;;;;2.75;2.08;;;15.40;99.90;;;;;;6085273;23;20032;-77
2022/09/09 06:21:21;;;;;;;3.45;1.88;;;15.40;99.90;;;;;;6109930;23;20159;-75
2022/09/09 06:23:48;;;;;;;3.50;1.83;;;15.40;99.90;;;;;;6085019;23;20030;-76
2022/09/09 06:26:19;;;;;;;2.80;1.58;;;15.50;99.90;;;;;;6108919;23;20291;-78
2022/09/09 06:28:47;;;;;;;3.78;2.10;;;15.50;99.90;;;;;;6109982;23;20196;-75
2022/09/09 06:31:21;;;;;;;2.22;1.60;;;15.50;99.90;;;;;;6083406;23;20022;-74
2022/09/09 06:33:54;;;;;;;2.65;1.73;;;15.50;99.90;;;;;;6109356;23;20067;-78
2022/09/09 06:36:23;;;;;;;2.65;1.67;;;15.50;99.90;;;;;;6084913;23;20045;-77
2022/09/09 06:38:50;;;;;;;3.15;1.65;;;15.50;99.90;;;;;;6109789;23;20065;-76
2022/09/09 06:41:18;;;;;;;2.63;1.63;;;15.60;99.90;;;;;;6083976;23;20036;-75
2022/09/09 06:43:45;;;;;;;2.58;1.65;;;15.60;99.90;;;;;;6084180;23;20596;-76
2022/09/09 06:46:17;;;;;;;3.58;2.00;;;15.60;99.90;;;;;;6082504;23;20195;-75
2022/09/09 06:48:44;;;;;;;3.10;1.45;;;15.60;99.90;;;;;;6083265;23;20022;-76
2022/09/09 06:51:16;;;;;;;3.78;2.03;;;15.60;99.90;;;;;;6083961;23;20026;-76
2022/09/09 06:53:44;;;;;;;4.43;2.72;;;15.60;99.90;;;;;;6109683;23;20061;-76
2022/09/09 06:56:11;;;;;;;2.92;2.08;;;15.60;99.90;;;;;;6109808;23;20025;-76
2022/09/09 06:58:46;;;;;;;3.65;2.10;;;15.60;99.90;;;;;;6085381;23;20030;-76
2022/09/09 07:01:17;;;;;;;3.20;1.95;;;15.70;99.90;;;;;;6083437;23;20090;-76
2022/09/09 07:03:49;;;;;;;3.17;2.35;;;15.70;99.90;;;;;;6084380;23;20028;-77
2022/09/09 07:06:18;;;;;;;2.45;1.70;;;15.70;99.90;;;;;;6083621;23;20022;-76
2022/09/09 07:08:52;;;;;;;4.50;2.75;;;15.70;99.90;;;;;;6082667;23;20080;-78
2022/09/09 07:11:24;;;;;;;3.10;1.77;;;15.70;99.90;;;;;;6082720;23;20343;-77
2022/09/09 07:13:51;;;;;;;3.20;2.15;;;15.70;99.90;;;;;;6109598;23;20030;-77
2022/09/09 07:16:18;;;;;;;4.70;1.73;;;15.80;99.90;;;;;;6082835;23;20292;-76
2022/09/09 07:18:46;;;;;;;2.72;2.00;;;15.90;99.90;;;;;;6081367;23;20350;-77
2022/09/09 07:21:13;;;;;;;4.60;2.80;;;15.90;99.90;;;;;;6108017;23;20410;-77
2022/09/09 07:23:40;;;;;;;3.55;1.98;;;15.90;99.90;;;;;;6109490;23;20033;-76
2022/09/09 07:26:21;;;;;;;2.75;1.70;;;16.00;99.90;;;;;;6084119;23;20032;-77
2022/09/09 07:28:48;;;;;;;3.67;2.05;;;16.00;99.90;;;;;;6110069;23;20030;-78
2022/09/09 07:31:20;;;;;;;4.53;2.20;;;16.00;99.90;;;;;;6081345;23;20040;-76
2022/09/09 07:33:47;;;;;;;3.22;2.42;;;16.00;99.90;;;;;;6083439;23;20022;-77
2022/09/09 07:36:15;;;;;;;3.53;1.73;;;16.10;99.90;;;;;;6084334;23;20026;-76
2022/09/09 07:38:45;;;;;;;2.38;2.00;;;16.10;99.90;;;;;;6083661;23;20350;-77
2022/09/09 07:41:17;;;;;;;2.20;1.60;;;16.20;99.90;;;;;;6110480;23;20171;-77
2022/09/09 07:43:45;;;;;;;4.18;1.80;;;16.30;99.90;;;;;;6109089;23;20320;-77
2022/09/09 07:46:12;;;;;;;4.00;2.15;;;16.30;99.90;;;;;;6109908;23;20058;-76
2022/09/09 07:48:44;;;;;;;1.63;1.42;;;16.30;99.90;;;;;;6082339;23;20026;-77
2022/09/09 07:51:16;;;;;;;1.92;1.40;;;16.30;99.90;;;;;;6059297;23;20080;-76
2022/09/09 07:53:43;;;;;;;1.48;1.23;;;16.30;99.90;;;;;;6084861;23;20022;-76
2022/09/09 07:56:11;;;;;;;1.83;1.50;;;16.30;99.90;;;;;;6059379;23;20033;-79
2022/09/09 07:58:39;;;;;;;1.95;1.40;;;16.30;99.90;;;;;;6107862;23;20295;-75
2022/09/09 08:01:17;;;;;;;1.50;1.30;;;16.30;99.90;;;;;;6082946;23;20026;-76
2022/09/09 08:03:45;;;;;;;3.33;1.65;;;16.30;99.90;;;;;;6082778;23;20093;-76
2022/09/09 08:06:12;;;;;;;2.60;1.85;;;16.40;99.90;;;;;;6083779;23;20105;-76
2022/09/09 08:08:41;;;;;;;2.80;1.92;;;16.30;99.90;;;;;;6082398;23;20403;-76
2022/09/09 08:11:11;;;;;;;2.33;1.77;;;16.30;99.90;;;;;;6109662;23;20105;-76
2022/09/09 08:13:38;;;;;;;3.95;1.70;;;16.40;99.90;;;;;;6109643;23;20497;-75
2022/09/09 08:16:11;;;;;;;3.88;1.92;;;16.50;99.90;;;;;;6083253;23;20114;-76
2022/09/09 08:18:39;;;;;;;2.63;2.15;;;16.50;99.90;;;;;;6107863;23;20376;-76
2022/09/09 08:21:13;;;;;;;2.65;1.70;;;16.60;99.90;;;;;;6083518;23;20022;-75
2022/09/09 08:23:41;;;;;;;1.80;1.50;;;16.60;99.90;;;;;;6083249;23;20237;-76
2022/09/09 08:26:27;;;;;;;2.22;1.33;;;16.70;99.90;;;;;;6108332;23;20128;-75
2022/09/09 08:28:56;;;;;;;1.80;1.48;;;16.90;99.90;;;;;;6082976;23;20457;-75
2022/09/09 08:31:27;;;;;;;2.42;1.60;;;17.00;99.90;;;;;;6106913;23;20470;-75
2022/09/09 08:33:55;;;;;;;2.75;1.67;;;17.10;99.90;;;;;;6107203;23;20065;-75
2022/09/09 08:36:24;;;;;;;2.25;1.77;;;17.10;99.90;;;;;;6080411;23;20257;-75
2022/09/09 08:38:54;;;;;;;3.55;2.28;;;17.10;99.90;;;;;;6079448;23;20459;-76
2022/09/09 08:41:38;;;;;;;2.83;1.77;;;17.20;99.90;;;;;;6082105;23;20128;-76
2022/09/09 08:44:36;;;;;;;3.42;1.55;;;17.40;99.90;;;;;;6081991;23;20022;-76
2022/09/09 08:47:18;;;;;;;2.72;1.65;;;17.50;99.90;;;;;;6108837;23;20049;-75
2022/09/09 08:49:55;;;;;;;2.05;1.58;;;17.60;99.90;;;;;;6085615;23;20133;-76
2022/09/09 08:52:47;;;;;;;3.17;2.10;;;17.60;99.90;;;;;;6108422;23;20516;-75
2022/09/09 08:55:38;;;;;;;2.20;1.63;;;17.50;99.90;;;;;;6108760;23;20018;-76
2022/09/09 08:58:19;;;;;;;3.75;1.67;;;17.50;99.90;;;;;;6087085;23;20487;-75
2022/09/09 09:00:46;;;;;;;2.75;2.13;;;17.50;99.90;;;;;;6082384;23;20034;-76
2022/09/09 09:03:23;;;;;;;2.25;1.60;;;17.60;99.90;;;;;;6107021;23;20022;-75
2022/09/09 09:06:22;;;;;;;3.80;2.83;;;17.60;99.90;;;;;;6058770;23;20026;-75
2022/09/09 09:08:55;;;;;;;3.40;2.30;;;17.40;99.90;;;;;;6108283;23;20503;-75
2022/09/09 09:11:22;;;;;;;;;;;17.30;99.90;;;;;;6108618;23;20438;-75
2022/09/09 09:13:55;;;;;;;2.35;2.00;;;17.20;99.90;;;;;;6082930;23;19920;-75
2022/09/09 09:16:38;;;;;;;;;;;17.10;99.90;;;;;;6085348;23;20040;-75
2022/09/09 09:19:05;;;;;;;2.28;2.08;;;17.00;99.90;;;;;;6057580;23;19917;-75
2022/09/09 09:21:39;;;;;;;3.05;2.25;;;17.00;99.90;;;;;;6057734;23;20443;-75
2022/09/09 09:24:27;;;;;;;2.92;2.15;;;17.00;99.90;;;;;;6083086;23;20029;-75
2022/09/09 09:26:53;;;;;;;3.40;2.65;;;17.00;99.90;;;;;;6085813;23;20129;-75
2022/09/09 09:29:21;;;;;;;2.85;1.95;;;17.10;99.90;;;;;;6083443;23;20032;-75
2022/09/09 09:31:54;;;;;;;2.45;2.08;;;17.20;99.90;;;;;;6081220;23;20028;-75
2022/09/09 09:34:21;;;;;;;;;;;17.30;99.90;;;;;;6082259;23;20954;-75
2022/09/09 09:36:57;;;;;;;3.80;2.15;;;17.30;99.90;;;;;;6082169;23;19943;-75
2022/09/09 09:39:27;;;;;;;3.20;2.42;;;17.40;99.90;;;;;;6083258;23;20026;-76
2022/09/09 09:42:15;;;;;;;5.75;3.92;;;17.50;99.90;;;;;;6107721;23;20395;-75
2022/09/09 09:44:47;;;;;;;3.95;3.42;;;17.60;99.90;;;;;;6083325;23;20030;-76
2022/09/09 09:47:15;;;;;;;3.00;2.60;;;17.70;99.90;;;;;;6080757;23;20283;-75
2022/09/09 09:49:59;;;;;;;3.30;2.35;;;18.10;99.90;;;;;;6106446;23;20944;-75
2022/09/09 09:52:28;;;;;;;3.63;3.03;;;18.30;99.90;;;;;;6081611;23;20314;-75
2022/09/09 09:54:55;;;;;;;3.92;3.42;;;18.30;99.90;;;;;;6082836;23;20057;-74
2022/09/09 09:57:31;;;;;;;5.22;3.50;;;18.30;99.90;;;;;;6083452;23;20697;-75
2022/09/09 10:00:25;;;;;;;4.80;3.83;;;18.30;99.90;;;;;;6108662;23;20025;-75
2022/09/09 10:02:52;;;;;;;;;;;18.30;99.90;;;;;;6047804;23;20023;-74
2022/09/09 10:05:25;;;;;;;4.15;2.95;;;18.40;99.90;;;;;;6072826;23;20382;-75
2022/09/09 10:08:10;;;;;;;4.03;3.65;;;18.40;99.90;;;;;;6072229;23;20098;-75
2022/09/09 10:10:52;;;;;;;3.75;3.00;;;18.30;99.90;;;;;;6072766;23;20119;-75
2022/09/09 10:13:38;;;;;;;3.53;2.72;;;18.30;99.90;;;;;;6051088;23;20122;-76
2022/09/09 10:16:23;;;;;;;2.92;2.35;;;18.50;99.90;;;;;;6071313;23;20615;-75
2022/09/09 10:19:17;;;;;;;2.65;2.00;;;18.60;99.90;;;;;;6049892;23;20046;-75
2022/09/09 10:22:14;;;;;;;3.80;2.00;;;18.60;99.90;;;;;;6048760;23;20220;-75
2022/09/09 10:25:06;;;;;;;5.95;4.50;;;18.70;99.90;;;;;;6051733;23;20507;-75
2022/09/09 10:27:58;;;;;;;5.78;5.18;;;18.50;99.90;;;;;;6069435;23;20065;-75
2022/09/09 10:30:56;;;;;;;4.88;3.58;;;18.40;99.90;;;;;;6051632;23;20031;-75
2022/09/09 10:33:33;;;;;;;4.57;3.60;;;18.40;99.90;;;;;;6051312;23;20041;-75
2022/09/09 10:36:23;;;;;;;5.32;4.35;;;18.40;99.90;;;;;;6051737;23;20098;-75
2022/09/09 10:39:15;;;;;;;4.43;3.47;;;18.30;99.90;;;;;;6050906;23;20097;-75
2022/09/09 10:42:17;;;;;;;3.15;2.85;;;18.20;99.90;;;;;;6072434;23;20058;-75
2022/09/09 10:44:59;;;;;;;3.63;3.13;;;18.30;99.90;;;;;;6022758;23;20027;-75
2022/09/09 10:47:30;;;;;;;4.03;3.30;;;18.50;99.90;;;;;;6046111;23;20122;-75
2022/09/09 10:50:16;;;;;;;5.30;2.78;;;18.80;99.90;;;;;;6050147;23;20062;-74
2022/09/09 10:52:55;;;;;;;2.92;2.53;;;19.00;99.90;;;;;;6050938;23;20568;-75
2022/09/09 10:55:27;;;;;;;4.20;2.65;;;19.10;99.90;;;;;;6050377;23;20316;-75
2022/09/09 10:57:57;;;;;;;3.55;3.00;;;19.10;99.90;;;;;;6072821;23;20026;-74
2022/09/09 11:00:31;;;;;;;4.88;3.65;;;19.00;99.90;;;;;;6073595;23;20054;-74
2022/09/09 11:03:02;;;;;;;3.45;2.95;;;18.80;99.90;;;;;;6083014;23;20056;-74
2022/09/09 11:05:39;;;;;;;5.30;4.03;;;18.70;99.90;;;;;;6083000;23;20022;-74
2022/09/09 11:08:20;;;;;;;4.03;3.60;;;18.30;99.90;;;;;;6109497;23;20527;-75
2022/09/09 11:11:00;;;;;;;3.95;3.55;;;18.00;99.90;;;;;;6085296;23;20077;-78
2022/09/09 11:13:54;;;;;;;3.60;2.80;;;17.60;99.90;;;;;;6085598;23;20026;-78
2022/09/09 11:16:34;;;;;;;4.68;2.80;;;17.40;99.90;;;;;;6082749;23;20034;-77
2022/09/09 11:19:35;;;;;;;6.30;4.53;;;17.30;99.90;;;;;;6082703;23;20446;-76
2022/09/09 11:22:14;;;;;;;4.20;3.42;;;17.30;99.90;;;;;;6082853;23;20037;-77
2022/09/09 11:24:54;;;;;;;3.38;3.08;;;17.40;99.90;;;;;;6082987;23;20343;-77
2022/09/09 11:27:25;;;;;;;3.33;2.40;;;17.40;99.90;;;;;;6084098;23;20026;-77
2022/09/09 11:30:20;;;;;;;2.88;2.10;;;17.40;99.90;;;;;;6058272;23;20077;-76
2022/09/09 11:33:33;;;;;;;2.85;2.15;;;17.30;99.90;;;;;;6085168;23;20407;-76
2022/09/09 11:36:27;;;;;;;3.30;1.80;;;17.40;99.90;;;;;;6084153;23;20022;-76
2022/09/09 11:39:07;;;;;;;3.17;2.10;;;17.40;99.90;;;;;;6109347;23;20553;-76
2022/09/09 11:41:36;;;;;;;2.20;1.60;;;17.30;99.90;;;;;;6083281;23;20409;-76
2022/09/09 11:44:13;;;;;;;2.05;1.42;;;17.20;99.90;;;;;;6084763;23;20026;-76
2022/09/09 11:46:41;;;;;;;2.20;1.52;;;17.20;99.90;;;;;;6081924;23;20341;-75
2022/09/09 11:49:25;;;;;;;1.42;1.20;;;17.30;99.90;;;;;;6082649;23;20033;-75
2022/09/09 11:51:52;;;;;;;1.88;1.67;;;17.50;99.90;;;;;;6108577;23;20336;-80
2022/09/09 11:54:29;;;;;;;2.67;2.33;;;17.50;99.90;;;;;;6084829;23;20030;-80
2022/09/09 11:56:56;;;;;;;5.55;2.50;;;17.40;99.90;;;;;;6110348;23;20339;-79
2022/09/09 11:59:31;;;;;;;3.03;2.38;;;17.40;99.90;;;;;;6083889;23;20366;-80
2022/09/09 12:02:14;;;;;;;3.63;2.17;;;17.60;99.90;;;;;;6083137;23;20478;-79
2022/09/09 12:04:54;;;;;;;2.42;1.73;;;17.70;99.90;;;;;;6085131;23;20022;-78
2022/09/09 12:07:24;;;;;;;2.55;1.58;;;17.70;99.90;;;;;;6082946;23;20026;-79
2022/09/09 12:10:02;;;;;;;3.92;1.65;;;17.80;99.90;;;;;;6108661;23;20183;-79
2022/09/09 12:12:33;;;;;;;2.90;1.73;;;17.80;99.90;;;;;;6083671;23;20032;-78
2022/09/09 12:15:08;;;;;;;2.10;1.60;;;17.80;99.90;;;;;;6082518;23;20022;-79
2022/09/09 12:17:46;;;;;;;2.45;1.50;;;17.90;99.90;;;;;;6108923;23;20417;-78
2022/09/09 12:20:33;;;;;;;2.47;1.38;;;18.10;99.90;;;;;;6059532;23;20427;-79
2022/09/09 12:23:18;;;;;;;2.88;1.33;;;18.40;99.90;;;;;;6062614;23;20036;-79
2022/09/09 12:26:04;;;;;;;1.90;1.27;;;18.60;99.90;;;;;;6084007;23;20365;-79
2022/09/09 12:28:51;;;;;;;1.67;1.27;;;18.90;99.90;;;;;;6108756;23;20157;-78
2022/09/09 12:31:49;;;;;;;2.13;1.73;;;19.20;99.90;;;;;;6058446;23;20032;-78
2022/09/09 12:35:09;;;;;;;1.42;1.33;;;19.40;99.90;;;;;;6108446;23;20288;-77
2022/09/09 12:37:53;;;;;;;2.33;1.52;;;19.70;99.90;;;;;;5967433;23;20107;-77
2022/09/09 12:40:32;;;;;;;2.45;1.27;;;20.20;99.90;;;;;;5923047;23;20028;-77
2022/09/09 12:42:59;;;;;;;1.98;1.40;;;20.30;99.90;;;;;;6011548;23;20092;-77
2022/09/09 12:45:31;;;;;;;2.15;1.73;;;20.50;99.90;;;;;;6082935;23;20033;-77
2022/09/09 12:48:03;;;;;;;2.22;1.73;;;20.50;99.90;;;;;;6082690;23;20028;-77
2022/09/09 12:50:34;;;;;;;1.80;1.40;;;20.80;99.90;;;;;;6082944;23;20072;-77
2022/09/09 12:53:09;;;;;;;1.67;1.27;;;21.20;99.90;;;;;;6059087;23;20033;-77
2022/09/09 12:55:37;;;;;;;1.67;1.52;;;21.60;99.90;;;;;;6083541;23;20097;-77
2022/09/09 12:58:05;;;;;;;2.35;1.55;;;21.60;99.90;;;;;;6059141;23;20354;-77
2022/09/09 13:00:33;;;;;;;2.42;1.42;;;21.10;99.90;;;;;;6057744;23;20041;-77
2022/09/09 13:03:01;;;;;;;2.20;1.58;;;20.80;99.90;;;;;;6081685;23;20025;-77
2022/09/09 13:05:34;;;;;;;1.90;1.50;;;20.50;99.90;;;;;;6083127;23;20491;-77
2022/09/09 13:08:02;;;;;;;1.52;1.40;;;20.80;99.90;;;;;;6082632;23;20048;-78
2022/09/09 13:10:34;;;;;;;1.83;1.25;;;21.50;99.90;;;;;;6059475;23;20026;-77
2022/09/09 13:13:23;;;;;;;2.90;1.50;;;21.70;99.90;;;;;;6065775;23;20102;-77
2022/09/09 13:15:54;;;;;;;4.15;1.80;;;21.90;99.90;;;;;;6081710;23;20316;-77
2022/09/09 13:18:40;;;;;;;3.63;1.67;;;21.80;99.90;;;;;;6081943;23;20025;-80
2022/09/09 13:21:07;;;;;;;1.60;1.40;;;21.60;99.90;;;;;;6080772;23;20037;-76
2022/09/09 13:23:35;;;;;;;1.27;1.17;;;21.80;99.90;;;;;;6082398;23;20018;-76